Time;durP1;ratioP1;P1;durP2;ratioP2;P2;SDS_P1;SDS_P2;PMS_P1;PMS_P2;Temp;Humidity;BMP_temperature;BMP_pressure;BME280_temperature;BME280_humidity;BME280_pressure;Samples;Min_cycle;Max_cycle;Signal;HPM_P1;HPM_P2
2020/12/13 00:02:12;;;;;;;30.43;16.70;;;3.90;99.90;;;;;;5084101;28;20639;-72
2020/12/13 00:04:38;;;;;;;32.43;18.87;;;3.90;99.90;;;;;;5088000;28;20176;-71
2020/12/13 00:07:05;;;;;;;35.13;18.80;;;3.80;99.90;;;;;;5088608;28;20187;-73
2020/12/13 00:09:30;;;;;;;32.50;18.50;;;3.80;99.90;;;;;;5089223;28;20234;-72
2020/12/13 00:11:56;;;;;;;30.73;17.43;;;3.80;99.90;;;;;;5087954;28;20208;-72
2020/12/13 00:14:21;;;;;;;33.30;18.90;;;3.80;99.90;;;;;;5089783;28;20180;-73
2020/12/13 00:16:51;;;;;;;35.57;19.70;;;3.80;99.90;;;;;;5097370;28;20240;-74
2020/12/13 00:19:16;;;;;;;33.37;18.80;;;3.90;99.90;;;;;;5100332;28;20269;-73
2020/12/13 00:21:42;;;;;;;30.53;18.47;;;4.00;99.90;;;;;;5094117;28;20641;-72
2020/12/13 00:24:07;;;;;;;31.77;18.73;;;4.00;99.90;;;;;;5088010;28;20350;-73
2020/12/13 00:26:33;;;;;;;35.13;17.90;;;4.00;99.90;;;;;;5089350;28;20204;-73
2020/12/13 00:28:58;;;;;;;36.10;19.30;;;4.10;99.90;;;;;;5090439;28;20188;-73
2020/12/13 00:31:24;;;;;;;31.27;17.17;;;4.10;99.90;;;;;;5082718;28;20198;-73
2020/12/13 00:33:49;;;;;;;30.40;17.20;;;4.10;99.90;;;;;;5090675;28;20355;-73
2020/12/13 00:36:18;;;;;;;32.47;18.80;;;4.10;99.90;;;;;;5090129;28;20200;-72
2020/12/13 00:38:43;;;;;;;34.87;19.07;;;4.10;99.90;;;;;;5092285;28;20191;-71
2020/12/13 00:41:10;;;;;;;35.30;18.53;;;4.10;99.90;;;;;;5086628;28;20485;-72
2020/12/13 00:43:35;;;;;;;34.53;19.17;;;4.10;99.90;;;;;;5087249;28;20184;-70
2020/12/13 00:46:01;;;;;;;33.00;17.10;;;4.10;99.90;;;;;;5088418;28;20196;-71
2020/12/13 00:48:26;;;;;;;32.23;18.63;;;4.10;99.90;;;;;;5088905;28;20207;-70
2020/12/13 00:50:52;;;;;;;27.20;16.67;;;4.00;99.90;;;;;;5088035;28;20207;-70
2020/12/13 00:53:17;;;;;;;31.77;17.20;;;4.00;99.90;;;;;;5091668;28;20204;-70
2020/12/13 00:55:46;;;;;;;33.13;18.23;;;3.90;99.90;;;;;;5092676;28;20256;-70
2020/12/13 00:58:12;;;;;;;32.30;17.00;;;4.00;99.90;;;;;;5088606;28;20203;-70
2020/12/13 01:00:37;;;;;;;29.83;18.33;;;3.90;99.90;;;;;;5083876;28;20560;-59
2020/12/13 01:03:03;;;;;;;31.97;18.03;;;4.00;99.90;;;;;;5088251;28;20187;-60
2020/12/13 01:05:29;;;;;;;29.30;17.63;;;4.00;99.90;;;;;;5069008;28;20272;-59
2020/12/13 01:07:54;;;;;;;35.03;18.77;;;4.10;99.90;;;;;;5084436;28;20216;-60
2020/12/13 01:10:20;;;;;;;32.87;17.80;;;4.10;99.90;;;;;;5089098;28;20191;-60
2020/12/13 01:12:46;;;;;;;32.43;17.83;;;4.10;99.90;;;;;;5087500;28;20201;-61
2020/12/13 01:15:11;;;;;;;32.73;17.90;;;4.10;99.90;;;;;;5088780;28;20707;-60
2020/12/13 01:17:37;;;;;;;29.40;16.67;;;4.10;99.90;;;;;;5088909;28;20196;-60
2020/12/13 01:20:04;;;;;;;30.70;17.17;;;4.10;99.90;;;;;;5087166;28;20547;-59
2020/12/13 01:22:35;;;;;;;30.97;18.10;;;4.10;99.90;;;;;;5087406;28;20652;-61
2020/12/13 01:25:01;;;;;;;31.87;16.50;;;4.20;99.90;;;;;;5087643;28;20665;-61
2020/12/13 01:27:26;;;;;;;28.67;16.03;;;4.20;99.90;;;;;;5088433;28;20192;-61
2020/12/13 01:29:52;;;;;;;31.33;17.70;;;4.20;99.90;;;;;;5088598;28;20181;-61
2020/12/13 01:32:18;;;;;;;28.87;16.90;;;4.20;99.90;;;;;;5088311;28;20192;-61
2020/12/13 01:34:43;;;;;;;31.47;17.73;;;4.20;99.90;;;;;;5088042;28;20188;-61
2020/12/13 01:37:08;;;;;;;31.50;18.13;;;4.20;99.90;;;;;;5088036;28;20203;-61
2020/12/13 01:39:34;;;;;;;29.73;17.60;;;4.20;99.90;;;;;;5088844;28;20690;-61
2020/12/13 01:42:01;;;;;;;33.07;18.73;;;4.20;99.90;;;;;;5088382;28;20184;-61
2020/12/13 01:44:35;;;;;;;26.90;17.83;;;4.20;99.90;;;;;;5087631;28;20176;-61
2020/12/13 01:47:02;;;;;;;33.93;17.93;;;4.20;99.90;;;;;;5107143;22;20570;-62
2020/12/13 01:49:33;;;;;;;30.17;17.80;;;4.20;99.90;;;;;;5086824;28;20172;-62
2020/12/13 01:54:55;;;;;;;35.23;18.63;;;4.00;99.90;;;;;;5088662;28;20183;-62
2020/12/13 01:57:22;;;;;;;31.67;17.60;;;4.00;99.90;;;;;;5087694;28;20211;-61
2020/12/13 01:59:49;;;;;;;32.83;17.93;;;3.90;99.90;;;;;;5088408;28;20624;-64
2020/12/13 02:02:18;;;;;;;34.13;19.30;;;3.90;99.90;;;;;;5087380;28;20173;-63
2020/12/13 02:04:45;;;;;;;32.13;19.33;;;4.00;99.90;;;;;;5086792;28;20628;-62
2020/12/13 02:07:11;;;;;;;37.33;19.40;;;4.00;99.90;;;;;;5086988;28;20223;-64
2020/12/13 02:09:37;;;;;;;32.87;19.10;;;4.00;99.90;;;;;;5087029;28;20176;-62
2020/12/13 02:12:02;;;;;;;35.43;19.77;;;4.00;99.90;;;;;;5088320;28;20644;-66
2020/12/13 02:14:28;;;;;;;35.60;18.70;;;4.10;99.90;;;;;;5088230;28;20244;-62
2020/12/13 02:16:53;;;;;;;34.50;18.73;;;4.00;99.90;;;;;;5087976;28;20192;-66
2020/12/13 02:19:20;;;;;;;33.57;18.03;;;4.00;99.90;;;;;;5087788;28;20588;-63
2020/12/13 02:21:50;;;;;;;34.37;18.87;;;4.00;99.90;;;;;;5087298;28;20172;-66
2020/12/13 02:24:16;;;;;;;29.77;17.67;;;4.10;99.90;;;;;;5089913;28;20589;-65
2020/12/13 02:26:43;;;;;;;33.73;19.00;;;4.00;99.90;;;;;;5090914;28;20184;-64
2020/12/13 02:29:10;;;;;;;35.20;18.57;;;4.00;99.90;;;;;;5091985;28;20187;-62
2020/12/13 02:31:35;;;;;;;33.70;18.67;;;3.90;99.90;;;;;;5091119;28;20204;-62
2020/12/13 02:34:02;;;;;;;40.10;19.77;;;3.80;99.90;;;;;;5091719;28;20168;-62
2020/12/13 02:36:29;;;;;;;35.30;19.23;;;3.80;99.90;;;;;;5071187;28;20271;-62
2020/12/13 02:38:54;;;;;;;35.03;17.57;;;3.70;99.90;;;;;;5090755;28;20729;-63
2020/12/13 02:41:20;;;;;;;35.53;18.63;;;3.80;99.90;;;;;;5091276;28;20283;-66
2020/12/13 02:43:45;;;;;;;38.17;20.13;;;3.80;99.90;;;;;;5091914;28;20548;-62
2020/12/13 02:46:11;;;;;;;39.33;19.13;;;3.70;99.90;;;;;;5089251;28;20176;-64
2020/12/13 02:48:36;;;;;;;35.57;19.53;;;3.70;99.90;;;;;;5091035;28;20672;-63
2020/12/13 02:51:02;;;;;;;37.47;19.53;;;3.80;99.90;;;;;;5091320;28;20622;-67
2020/12/13 02:53:28;;;;;;;38.73;19.47;;;3.80;99.90;;;;;;5091081;28;20188;-61
2020/12/13 02:55:53;;;;;;;35.40;18.60;;;3.80;99.90;;;;;;5086625;28;20187;-64
2020/12/13 02:58:19;;;;;;;32.83;18.83;;;3.90;99.90;;;;;;5090784;28;20222;-63
2020/12/13 03:00:44;;;;;;;35.53;18.57;;;3.90;99.90;;;;;;5091024;28;20184;-65
2020/12/13 03:03:10;;;;;;;38.10;20.07;;;3.90;99.90;;;;;;5090754;28;20555;-63
2020/12/13 03:05:35;;;;;;;38.40;19.63;;;3.90;99.90;;;;;;5088702;28;20237;-63
2020/12/13 03:08:01;;;;;;;40.13;20.17;;;3.90;99.90;;;;;;5090752;28;20223;-63
2020/12/13 03:10:26;;;;;;;34.03;19.50;;;3.90;99.90;;;;;;5090635;28;20279;-66
2020/12/13 03:12:52;;;;;;;36.80;18.10;;;3.90;99.90;;;;;;5090861;28;20241;-63
2020/12/13 03:15:17;;;;;;;38.03;21.00;;;3.90;99.90;;;;;;5089499;28;20190;-67
2020/12/13 03:17:42;;;;;;;40.27;21.17;;;3.90;99.90;;;;;;5091169;28;20189;-64
2020/12/13 03:20:09;;;;;;;34.83;19.63;;;3.90;99.90;;;;;;5090593;28;20238;-64
2020/12/13 03:22:34;;;;;;;37.37;19.93;;;3.90;99.90;;;;;;5089562;28;20180;-65
2020/12/13 03:25:00;;;;;;;36.80;20.07;;;3.90;99.90;;;;;;5089390;28;20183;-63
2020/12/13 03:27:26;;;;;;;34.80;18.27;;;3.90;99.90;;;;;;5090600;28;20192;-62
2020/12/13 03:29:52;;;;;;;35.40;18.50;;;3.90;99.90;;;;;;5090183;28;20176;-62
2020/12/13 03:32:18;;;;;;;40.13;19.60;;;3.90;99.90;;;;;;5090139;28;20194;-62
2020/12/13 03:34:43;;;;;;;39.97;20.03;;;3.90;99.90;;;;;;5086571;28;20173;-62
2020/12/13 03:37:09;;;;;;;37.77;19.47;;;4.00;99.90;;;;;;5089863;28;20561;-62
2020/12/13 03:39:35;;;;;;;38.83;19.73;;;4.00;99.90;;;;;;5090609;28;20171;-64
2020/12/13 03:42:00;;;;;;;35.10;18.63;;;4.00;99.90;;;;;;5089970;28;20180;-63
2020/12/13 03:44:26;;;;;;;38.63;18.53;;;3.90;99.90;;;;;;5090389;28;20566;-64
2020/12/13 03:46:51;;;;;;;36.40;18.90;;;3.90;99.90;;;;;;5088760;28;20219;-62
2020/12/13 03:49:17;;;;;;;37.63;19.40;;;3.90;99.90;;;;;;5089694;28;20660;-62
2020/12/13 03:51:42;;;;;;;42.57;21.40;;;3.90;99.90;;;;;;5088342;28;20196;-62
2020/12/13 03:54:08;;;;;;;38.17;21.00;;;3.90;99.90;;;;;;5089984;28;20624;-62
2020/12/13 03:56:33;;;;;;;38.83;19.67;;;3.90;99.90;;;;;;5088592;28;20169;-62
2020/12/13 03:58:59;;;;;;;42.90;20.67;;;3.80;99.90;;;;;;5090033;28;20174;-65
2020/12/13 04:01:24;;;;;;;40.33;20.03;;;3.80;99.90;;;;;;5089748;28;20173;-62
2020/12/13 04:03:50;;;;;;;39.73;20.73;;;3.80;99.90;;;;;;5089486;28;20274;-61
2020/12/13 04:06:15;;;;;;;40.13;21.53;;;3.80;99.90;;;;;;5088294;28;20179;-65
2020/12/13 04:08:41;;;;;;;38.23;19.73;;;3.80;99.90;;;;;;5088824;28;20208;-62
2020/12/13 04:11:07;;;;;;;38.87;19.70;;;3.80;99.90;;;;;;5089477;28;20239;-62
2020/12/13 04:13:32;;;;;;;41.00;20.90;;;3.80;99.90;;;;;;5089199;28;20187;-62
2020/12/13 04:15:58;;;;;;;42.57;20.57;;;3.80;99.90;;;;;;5088641;28;20192;-64
2020/12/13 04:18:23;;;;;;;39.57;20.67;;;3.90;99.90;;;;;;5089500;28;20192;-63
2020/12/13 04:20:49;;;;;;;42.43;20.97;;;3.90;99.90;;;;;;5088882;28;20671;-62
2020/12/13 04:23:14;;;;;;;44.13;21.73;;;3.90;99.90;;;;;;5089802;28;20185;-63
2020/12/13 04:25:40;;;;;;;44.07;21.63;;;3.80;99.90;;;;;;5087814;28;20189;-62
2020/12/13 04:28:05;;;;;;;43.43;22.33;;;3.70;99.90;;;;;;5089640;28;20586;-66
2020/12/13 04:30:31;;;;;;;39.60;20.43;;;3.70;99.90;;;;;;5089058;28;20283;-62
2020/12/13 04:32:56;;;;;;;42.33;22.47;;;3.70;99.90;;;;;;5088470;28;20215;-65
2020/12/13 04:35:22;;;;;;;38.93;19.97;;;3.60;99.90;;;;;;5069364;28;20609;-63
2020/12/13 04:37:47;;;;;;;42.40;20.17;;;3.60;99.90;;;;;;5089071;28;20700;-64
2020/12/13 04:40:13;;;;;;;46.17;20.80;;;3.60;99.90;;;;;;5089117;28;20184;-63
2020/12/13 04:42:39;;;;;;;41.87;20.63;;;3.50;99.90;;;;;;5088849;28;20508;-63
2020/12/13 04:45:07;;;;;;;42.17;20.87;;;3.50;99.90;;;;;;5088537;28;20203;-62
2020/12/13 04:47:33;;;;;;;40.10;19.67;;;3.40;99.90;;;;;;5086834;28;20609;-62
2020/12/13 04:50:03;;;;;;;44.07;20.97;;;3.50;99.90;;;;;;5089045;28;20206;-62
2020/12/13 04:52:29;;;;;;;42.33;20.77;;;3.50;99.90;;;;;;5087910;28;20164;-61
2020/12/13 04:54:55;;;;;;;42.60;21.33;;;3.60;99.90;;;;;;5086342;28;20220;-62
2020/12/13 04:57:21;;;;;;;36.63;20.07;;;3.60;99.90;;;;;;5087660;28;20261;-63
2020/12/13 04:59:48;;;;;;;44.83;21.07;;;3.60;99.90;;;;;;5087436;28;20176;-63
2020/12/13 05:02:14;;;;;;;40.33;20.83;;;3.70;99.90;;;;;;5088842;28;20604;-62
2020/12/13 05:04:40;;;;;;;42.87;20.97;;;3.60;99.90;;;;;;5085624;28;20652;-63
2020/12/13 05:07:06;;;;;;;40.07;20.63;;;3.70;99.90;;;;;;5088343;28;20200;-63
2020/12/13 05:09:32;;;;;;;43.63;20.67;;;3.70;99.90;;;;;;5089218;28;20229;-64
2020/12/13 05:11:58;;;;;;;39.37;21.10;;;3.70;99.90;;;;;;5087682;28;20260;-64
2020/12/13 05:14:24;;;;;;;41.93;22.27;;;3.70;99.90;;;;;;5087101;28;20168;-61
2020/12/13 05:16:49;;;;;;;41.73;20.83;;;3.70;99.90;;;;;;5088533;28;20626;-62
2020/12/13 05:19:15;;;;;;;41.47;20.53;;;3.70;99.90;;;;;;5088374;28;20172;-62
2020/12/13 05:21:42;;;;;;;38.77;19.97;;;3.70;99.90;;;;;;5087060;28;20181;-65
2020/12/13 05:24:07;;;;;;;44.67;23.03;;;3.70;99.90;;;;;;5088464;28;20212;-63
2020/12/13 05:26:33;;;;;;;42.07;21.53;;;3.70;99.90;;;;;;5088213;28;20317;-63
2020/12/13 05:29:00;;;;;;;42.63;21.17;;;3.70;99.90;;;;;;5088230;28;20223;-65
2020/12/13 05:31:28;;;;;;;43.30;22.73;;;3.70;99.90;;;;;;5087238;28;20195;-62
2020/12/13 05:34:00;;;;;;;44.97;22.40;;;3.70;99.90;;;;;;5087025;28;20179;-62
2020/12/13 05:36:28;;;;;;;47.90;21.90;;;3.70;99.90;;;;;;5088438;28;20762;-63
2020/12/13 05:38:59;;;;;;;46.13;23.63;;;3.70;99.90;;;;;;5088324;28;20215;-61
2020/12/13 05:41:35;;;;;;;45.07;21.20;;;3.70;99.90;;;;;;5087868;28;20173;-64
2020/12/13 05:44:14;;;;;;;39.00;20.63;;;3.80;99.90;;;;;;5086478;28;20175;-62
2020/12/13 14:15:26;;;;;;;48.43;21.00;;;2.60;99.90;;;;;;5106344;27;20295;-76
2020/12/13 14:17:52;;;;;;;48.33;23.23;;;2.60;99.90;;;;;;5093032;28;20183;-73
2020/12/13 14:20:17;;;;;;;49.03;23.93;;;2.60;99.90;;;;;;5090686;28;20236;-77
2020/12/13 14:22:43;;;;;;;45.67;23.17;;;2.60;99.90;;;;;;5099620;28;20616;-77
2020/12/13 14:25:08;;;;;;;44.27;21.13;;;2.60;99.90;;;;;;5105023;28;20208;-73
2020/12/13 14:27:34;;;;;;;43.43;23.50;;;2.60;99.90;;;;;;5103771;22;20231;-60
2020/12/13 14:29:59;;;;;;;42.10;22.43;;;2.60;99.90;;;;;;5077254;28;20203;-62
2020/12/13 14:32:25;;;;;;;46.93;22.43;;;2.70;99.90;;;;;;5076557;28;20184;-63
2020/12/13 14:34:50;;;;;;;45.47;23.90;;;2.60;99.90;;;;;;5075755;28;20610;-62
2020/12/13 14:37:16;;;;;;;44.27;21.53;;;2.60;99.90;;;;;;5074728;28;20193;-62
2020/12/13 14:39:41;;;;;;;43.40;21.73;;;2.60;99.90;;;;;;5074393;28;20237;-62
2020/12/13 14:42:06;;;;;;;47.13;22.30;;;2.60;99.90;;;;;;5074729;28;20415;-62
2020/12/13 14:44:32;;;;;;;47.90;22.57;;;2.50;99.90;;;;;;5074842;28;20185;-60
2020/12/13 14:46:57;;;;;;;42.20;21.93;;;2.60;99.90;;;;;;5075304;28;20201;-61
2020/12/13 14:49:23;;;;;;;47.27;22.47;;;2.70;99.90;;;;;;5076100;28;20215;-62
2020/12/13 14:51:49;;;;;;;37.13;20.57;;;2.70;99.90;;;;;;5074849;28;20206;-62
2020/12/13 14:54:14;;;;;;;40.87;21.93;;;2.70;99.90;;;;;;5073157;28;20207;-61
2020/12/13 14:56:40;;;;;;;40.83;21.20;;;2.70;99.90;;;;;;5075145;28;20226;-61
2020/12/13 14:59:05;;;;;;;40.57;21.80;;;2.70;99.90;;;;;;5075142;28;20543;-61
2020/12/13 15:01:31;;;;;;;36.33;19.53;;;2.70;99.90;;;;;;5073647;28;20199;-61
2020/12/13 15:03:56;;;;;;;38.37;20.97;;;2.70;99.90;;;;;;5075344;28;20177;-62
2020/12/13 15:06:28;;;;;;;45.27;21.93;;;2.70;99.90;;;;;;5075188;28;20725;-60
2020/12/13 15:08:58;;;;;;;47.97;23.37;;;2.70;99.90;;;;;;5075315;28;20178;-61
2020/12/13 15:11:27;;;;;;;43.77;23.57;;;2.80;99.90;;;;;;5074391;28;20177;-60
2020/12/13 15:18:49;;;;;;;41.33;21.53;;;2.70;99.90;;;;;;5073931;28;20317;-61
2020/12/13 15:21:14;;;;;;;37.03;19.40;;;2.70;99.90;;;;;;5074844;28;20445;-61
2020/12/13 15:23:40;;;;;;;42.23;21.93;;;2.70;99.90;;;;;;5075096;28;20268;-60
2020/12/13 15:26:05;;;;;;;40.30;20.27;;;2.50;99.90;;;;;;5065544;28;20236;-61
2020/12/13 15:28:31;;;;;;;38.03;20.73;;;2.50;99.90;;;;;;5060879;28;20185;-63
2020/12/13 15:30:56;;;;;;;40.10;20.73;;;2.50;99.90;;;;;;5060829;28;20656;-61
2020/12/13 15:33:22;;;;;;;38.27;20.60;;;2.50;99.90;;;;;;5060968;28;20250;-63
2020/12/13 15:35:47;;;;;;;37.23;20.47;;;2.50;99.90;;;;;;5060505;28;20551;-63
2020/12/13 15:38:13;;;;;;;37.90;20.50;;;2.40;99.90;;;;;;5061888;28;20173;-63
2020/12/13 15:40:40;;;;;;;41.83;20.77;;;2.30;99.90;;;;;;5060780;28;20688;-63
2020/12/13 15:43:05;;;;;;;44.77;22.17;;;2.30;99.90;;;;;;5060562;28;20372;-63
2020/12/13 15:45:31;;;;;;;38.80;21.40;;;2.20;99.90;;;;;;5060617;28;20697;-64
2020/12/13 15:47:57;;;;;;;41.93;22.10;;;2.30;99.90;;;;;;5060149;28;20190;-62
2020/12/13 15:50:24;;;;;;;42.20;22.10;;;2.30;99.90;;;;;;5059727;28;20201;-62
2020/12/13 15:52:51;;;;;;;34.87;19.20;;;2.30;99.90;;;;;;5060948;28;20177;-62
2020/12/13 15:55:17;;;;;;;38.43;20.73;;;2.40;99.90;;;;;;5060413;28;20209;-61
2020/12/13 15:57:43;;;;;;;41.23;22.13;;;2.40;99.90;;;;;;5060783;28;20199;-62
2020/12/13 16:00:08;;;;;;;41.40;21.37;;;2.40;99.90;;;;;;5057917;28;20235;-62
2020/12/13 16:02:34;;;;;;;36.60;18.40;;;2.40;99.90;;;;;;5061585;28;20185;-62
2020/12/13 16:05:10;;;;;;;38.07;20.57;;;2.30;99.90;;;;;;5061243;28;20665;-64
2020/12/13 16:07:39;;;;;;;39.67;21.00;;;2.20;99.90;;;;;;5060613;28;20188;-62
2020/12/13 16:10:05;;;;;;;41.83;21.30;;;2.30;99.90;;;;;;5060032;28;20268;-62
2020/12/13 16:12:30;;;;;;;43.37;22.83;;;2.40;99.90;;;;;;5059548;28;20281;-62
2020/12/13 16:14:58;;;;;;;40.57;22.17;;;2.50;99.90;;;;;;5059542;28;20221;-62
2020/12/13 16:17:23;;;;;;;40.03;22.47;;;2.50;99.90;;;;;;5060366;28;20193;-65
2020/12/13 16:19:48;;;;;;;43.83;23.70;;;2.40;99.90;;;;;;5059877;28;20187;-64
2020/12/13 16:22:14;;;;;;;46.77;23.20;;;2.40;99.90;;;;;;5058334;28;20189;-65
2020/12/13 16:24:41;;;;;;;44.33;22.77;;;2.50;99.90;;;;;;5059953;28;20229;-64
2020/12/13 16:27:06;;;;;;;42.27;22.17;;;2.50;99.90;;;;;;5060459;28;20220;-64
2020/12/13 16:29:32;;;;;;;41.90;21.17;;;2.40;99.90;;;;;;5060084;28;20537;-65
2020/12/13 16:31:57;;;;;;;33.20;19.23;;;2.40;99.90;;;;;;5059676;28;20215;-65
2020/12/13 16:34:26;;;;;;;36.07;20.10;;;2.30;99.90;;;;;;5059225;28;20192;-65
2020/12/13 16:36:52;;;;;;;35.43;17.43;;;2.30;99.90;;;;;;5059743;28;20288;-64
2020/12/13 16:39:22;;;;;;;56.47;19.87;;;2.20;99.90;;;;;;5059490;28;20272;-63
2020/12/13 16:41:55;;;;;;;45.10;22.43;;;2.10;99.90;;;;;;5059571;28;20181;-63
2020/12/13 16:44:26;;;;;;;43.83;20.53;;;2.00;99.90;;;;;;5059668;28;20375;-62
2020/12/13 16:46:54;;;;;;;81.03;19.37;;;2.00;99.90;;;;;;5058695;28;20287;-63
2020/12/13 16:54:26;;;;;;;59.53;23.20;;;1.90;99.90;;;;;;5058998;28;20212;-62
2020/12/13 16:56:52;;;;;;;96.17;24.37;;;1.90;99.90;;;;;;5058000;28;20581;-63
2020/12/13 16:59:17;;;;;;;59.23;23.57;;;1.80;99.90;;;;;;5059580;28;20642;-62
2020/12/13 17:01:43;;;;;;;43.07;20.30;;;1.80;99.90;;;;;;5059225;28;20667;-62
2020/12/13 17:04:11;;;;;;;79.93;21.13;;;1.80;99.90;;;;;;5059282;28;20190;-62
2020/12/13 17:06:38;;;;;;;61.17;24.33;;;1.80;99.90;;;;;;5060171;28;20263;-62
2020/12/13 17:09:05;;;;;;;51.13;24.17;;;1.80;99.90;;;;;;5059087;28;20177;-63
2020/12/13 17:11:31;;;;;;;54.13;24.43;;;1.90;99.90;;;;;;5058813;28;20181;-67
2020/12/13 17:13:57;;;;;;;54.57;24.67;;;1.90;99.90;;;;;;5059388;28;20207;-67
2020/12/13 17:16:26;;;;;;;61.00;26.23;;;1.80;99.90;;;;;;5058745;28;20648;-67
2020/12/13 17:18:52;;;;;;;45.10;17.10;;;1.80;99.90;;;;;;5060682;28;20177;-67
2020/12/13 17:21:29;;;;;;;51.80;17.13;;;1.70;99.90;;;;;;5060274;28;20181;-66
2020/12/13 17:23:55;;;;;;;50.63;19.33;;;1.60;99.90;;;;;;5059971;28;20181;-65
2020/12/13 17:26:21;;;;;;;54.40;18.67;;;1.70;99.90;;;;;;5059638;28;20216;-65
2020/12/13 17:28:47;;;;;;;55.37;22.07;;;1.60;99.90;;;;;;5058488;28;20192;-65
2020/12/13 17:31:13;;;;;;;78.23;21.90;;;1.70;99.90;;;;;;5058335;28;20209;-65
2020/12/13 17:33:39;;;;;;;44.40;17.47;;;1.50;99.90;;;;;;5058375;28;20574;-68
2020/12/13 17:36:05;;;;;;;81.90;21.40;;;1.40;99.90;;;;;;5057441;28;20204;-65
2020/12/13 17:38:30;;;;;;;56.67;20.73;;;1.40;99.90;;;;;;5058576;28;20177;-65
2020/12/13 17:40:56;;;;;;;61.13;19.30;;;1.30;99.90;;;;;;5058933;28;20196;-63
2020/12/13 17:43:23;;;;;;;81.03;23.50;;;1.30;99.90;;;;;;5057871;28;20177;-62
2020/12/13 17:45:49;;;;;;;52.73;19.83;;;1.30;99.90;;;;;;5058103;28;20227;-63
2020/12/13 17:48:15;;;;;;;55.37;20.10;;;1.40;99.90;;;;;;5059096;28;20210;-63
2020/12/13 17:53:38;;;;;;;64.50;21.80;;;1.30;99.90;;;;;;5059929;28;20456;-64
2020/12/13 17:56:14;;;;;;;59.67;18.43;;;1.40;99.90;;;;;;5058184;28;20189;-64
2020/12/13 17:58:54;;;;;;;60.97;21.60;;;1.30;99.90;;;;;;5056963;28;20251;-69
2020/12/13 18:01:20;;;;;;;55.07;19.20;;;1.40;99.90;;;;;;5059175;28;20188;-68
2020/12/13 18:03:45;;;;;;;80.40;21.90;;;1.30;99.90;;;;;;5058425;28;20189;-69
2020/12/13 18:06:12;;;;;;;82.00;22.87;;;1.40;99.90;;;;;;5058787;28;20185;-68
2020/12/13 18:08:38;;;;;;;83.27;20.57;;;1.40;99.90;;;;;;5058380;28;20181;-64
2020/12/13 18:11:06;;;;;;;80.43;21.27;;;1.30;99.90;;;;;;5058153;28;20230;-60
2020/12/13 18:13:35;;;;;;;61.13;19.63;;;1.30;99.90;;;;;;5058435;28;20638;-61
2020/12/13 18:16:00;;;;;;;47.37;19.03;;;1.30;99.90;;;;;;5057408;28;20303;-62
2020/12/13 18:18:26;;;;;;;41.77;15.70;;;1.20;99.90;;;;;;5058720;28;20261;-60
2020/12/13 18:20:54;;;;;;;53.03;16.90;;;1.10;99.90;;;;;;5059502;28;20177;-59
2020/12/13 18:23:19;;;;;;;67.80;19.07;;;1.10;99.90;;;;;;5059338;28;20177;-60
2020/12/13 18:25:45;;;;;;;48.60;16.57;;;1.10;99.90;;;;;;5056680;28;20441;-60
2020/12/13 18:28:11;;;;;;;88.63;17.80;;;1.00;99.90;;;;;;5059528;28;20170;-59
2020/12/13 18:30:36;;;;;;;50.97;16.40;;;1.00;99.90;;;;;;5058284;28;20184;-61
2020/12/13 18:33:02;;;;;;;46.13;16.77;;;1.00;99.90;;;;;;5056251;28;20177;-64
2020/12/13 18:35:27;;;;;;;56.70;17.47;;;1.00;99.90;;;;;;5057743;28;20216;-61
2020/12/13 18:37:55;;;;;;;50.60;16.23;;;1.00;99.90;;;;;;5057653;28;20189;-60
2020/12/13 18:40:21;;;;;;;48.23;16.10;;;1.00;99.90;;;;;;5058320;28;20177;-58
2020/12/13 18:42:46;;;;;;;42.03;16.03;;;1.00;99.90;;;;;;5055558;28;20184;-59
2020/12/13 18:45:12;;;;;;;53.90;17.97;;;1.00;99.90;;;;;;5058214;28;20535;-59
2020/12/13 18:47:40;;;;;;;40.03;15.23;;;1.00;99.90;;;;;;5058034;28;20204;-61
2020/12/13 18:50:06;;;;;;;46.67;18.13;;;1.00;99.90;;;;;;5057885;28;20177;-61
2020/12/13 18:52:31;;;;;;;39.37;16.93;;;1.00;99.90;;;;;;5057552;28;20335;-61
2020/12/13 18:54:56;;;;;;;28.73;11.93;;;1.00;99.90;;;;;;5058226;28;20207;-61
2020/12/13 18:57:22;;;;;;;42.93;15.30;;;0.90;99.90;;;;;;5057657;28;20733;-62
2020/12/13 18:59:47;;;;;;;42.60;18.47;;;0.90;99.90;;;;;;5058441;28;20177;-61
2020/12/13 19:02:31;;;;;;;53.03;18.93;;;1.00;99.90;;;;;;5064110;28;20209;-59
2020/12/13 19:04:58;;;;;;;45.87;19.60;;;1.00;99.90;;;;;;5061988;28;20282;-59
2020/12/13 19:07:25;;;;;;;39.43;17.10;;;1.00;99.90;;;;;;5061716;28;20236;-60
2020/12/13 19:09:50;;;;;;;51.97;18.23;;;1.00;99.90;;;;;;5060740;28;20180;-60
2020/12/13 19:12:16;;;;;;;44.67;17.00;;;1.10;99.90;;;;;;5060708;28;20558;-59
2020/12/13 19:14:41;;;;;;;53.80;20.30;;;1.10;99.90;;;;;;5062213;28;20258;-60
2020/12/13 19:17:07;;;;;;;52.60;18.27;;;1.10;99.90;;;;;;5061804;28;20212;-60
2020/12/13 19:19:33;;;;;;;89.43;20.07;;;1.10;99.90;;;;;;5059456;28;20180;-59
2020/12/13 19:22:00;;;;;;;58.03;17.47;;;1.10;99.90;;;;;;5061262;28;20213;-59
2020/12/13 19:24:25;;;;;;;50.60;16.77;;;1.00;99.90;;;;;;5061132;28;20260;-60
2020/12/13 19:26:56;;;;;;;38.73;15.73;;;0.80;99.90;;;;;;5061832;28;20667;-59
2020/12/13 19:29:21;;;;;;;40.10;12.23;;;0.80;99.90;;;;;;5062343;28;20173;-60
2020/12/13 19:31:48;;;;;;;39.60;12.97;;;0.80;99.90;;;;;;5060423;28;20657;-61
2020/12/13 19:34:14;;;;;;;38.90;13.97;;;0.80;99.90;;;;;;5060195;28;20204;-58
2020/12/13 19:36:39;;;;;;;31.40;14.60;;;0.80;99.90;;;;;;5059482;28;20189;-60
2020/12/13 19:39:05;;;;;;;27.63;13.83;;;0.70;99.90;;;;;;5060854;28;20503;-59
2020/12/13 19:41:30;;;;;;;32.93;14.83;;;0.80;99.90;;;;;;5059880;28;20560;-60
2020/12/13 19:43:56;;;;;;;39.80;15.03;;;0.80;99.90;;;;;;5060556;28;20676;-60
2020/12/13 19:46:24;;;;;;;39.13;17.70;;;0.80;99.90;;;;;;5061232;28;20703;-60
2020/12/13 19:48:49;;;;;;;44.90;16.93;;;0.80;99.90;;;;;;5060533;28;20165;-60
2020/12/13 19:51:20;;;;;;;31.30;14.83;;;0.90;99.90;;;;;;5060496;28;20201;-59
2020/12/13 19:53:46;;;;;;;26.60;13.53;;;0.90;99.90;;;;;;5059109;28;20232;-59
2020/12/13 19:56:12;;;;;;;33.00;16.97;;;0.90;99.90;;;;;;5061683;28;20189;-60
2020/12/13 19:58:37;;;;;;;27.30;13.50;;;0.90;99.90;;;;;;5060409;28;20575;-59
2020/12/13 20:01:09;;;;;;;28.83;13.47;;;0.80;99.90;;;;;;5060422;28;20180;-59
2020/12/13 20:03:34;;;;;;;22.00;11.47;;;0.80;99.90;;;;;;5059440;28;20223;-59
2020/12/13 20:06:00;;;;;;;34.50;13.50;;;0.80;99.90;;;;;;5060167;28;20182;-59
2020/12/13 20:08:26;;;;;;;32.53;13.43;;;0.80;99.90;;;;;;5061634;28;20169;-62
2020/12/13 20:10:51;;;;;;;38.13;13.53;;;0.70;99.90;;;;;;5059433;28;20549;-57
2020/12/13 20:13:25;;;;;;;26.73;13.57;;;0.70;99.90;;;;;;5059609;28;20244;-60
2020/12/13 20:15:58;;;;;;;29.43;12.70;;;0.80;99.90;;;;;;5060170;28;20174;-60
2020/12/13 20:32:50;;;;;;;30.10;12.87;;;0.40;99.90;;;;;;5039154;28;20180;-64
2020/12/13 20:35:16;;;;;;;26.63;12.43;;;0.50;99.90;;;;;;5039030;28;20826;-63
2020/12/13 20:40:54;;;;;;;29.20;12.70;;;0.50;99.90;;;;;;5039641;28;20264;-65
2020/12/13 20:47:43;;;;;;;28.40;10.87;;;0.40;99.90;;;;;;5039321;28;20178;-64
2020/12/13 20:57:36;;;;;;;38.70;17.13;;;0.40;99.90;;;;;;5037770;28;20631;-66
2020/12/13 21:00:13;;;;;;;34.97;15.70;;;0.40;99.90;;;;;;5034943;28;20183;-65
2020/12/13 21:02:46;;;;;;;40.30;14.07;;;0.30;99.90;;;;;;5036302;28;20282;-64
2020/12/13 21:11:16;;;;;;;36.03;14.10;;;0.30;99.90;;;;;;5038609;28;20710;-64
2020/12/13 21:14:03;;;;;;;32.27;15.00;;;0.30;99.90;;;;;;5037861;28;20182;-64
2020/12/13 21:18:49;;;;;;;38.37;15.73;;;0.40;99.90;;;;;;5041690;28;20174;-63
2020/12/13 21:21:28;;;;;;;22.83;12.50;;;0.40;99.90;;;;;;5044674;28;20174;-64
2020/12/13 21:24:29;;;;;;;35.50;15.03;;;0.40;99.90;;;;;;5038718;28;20217;-64
2020/12/13 21:45:04;;;;;;;34.57;17.73;;;0.60;99.90;;;;;;5034472;28;20295;-63
2020/12/13 21:47:35;;;;;;;43.40;16.87;;;0.60;99.90;;;;;;5037288;28;20193;-63
2020/12/13 21:52:44;;;;;;;42.23;17.43;;;0.60;99.90;;;;;;5037333;28;20641;-64
2020/12/13 21:55:21;;;;;;;26.97;15.20;;;0.60;99.90;;;;;;5036225;28;20213;-65
2020/12/13 21:57:46;;;;;;;37.60;15.67;;;0.70;99.90;;;;;;5037028;28;20198;-64
2020/12/13 22:03:40;;;;;;;37.50;16.30;;;0.60;99.90;;;;;;5037278;28;20268;-64
2020/12/13 22:08:39;;;;;;;31.47;14.03;;;0.70;99.90;;;;;;5037299;28;20635;-65
2020/12/13 22:23:02;;;;;;;38.10;15.07;;;0.70;99.90;;;;;;5034876;28;20174;-69
2020/12/13 22:24:59;;;;;;;29.47;13.77;;;0.80;99.90;;;;;;5036539;28;20174;-64
2020/12/13 22:27:24;;;;;;;32.83;15.37;;;0.80;99.90;;;;;;5035612;28;20221;-63
2020/12/13 22:29:50;;;;;;;22.90;11.50;;;0.80;99.90;;;;;;5034918;28;20197;-65
2020/12/13 22:32:15;;;;;;;31.67;15.17;;;0.80;99.90;;;;;;5035310;28;20276;-66
2020/12/13 22:34:41;;;;;;;32.83;16.30;;;0.80;99.90;;;;;;5034382;28;20206;-67